Time,TemperatureF,DewpointF,PressureIn,WindDirection,WindDirectionDegrees,WindSpeedMPH,WindSpeedGustMPH,Humidity,HourlyPrecipIn,Conditions,Clouds,dailyrainin,SolarRadiationWatts/m^2,SoftwareType,DateUTC
2013-12-12 00:00:00,-8.8,-13.5,30.43,SW,215,3.0,4.0,79,0.00,,OVC,0.00,0.00,VWS V15.00,2013-12-12 06:00:00,
2013-12-12 00:03:00,-10.0,-14.7,30.45,SW,236,3.0,6.0,79,0.00,,OVC,0.00,0.00,VWS V14.01,2013-12-12 06:03:00,
2013-12-12 00:05:00,-8.8,-13.5,30.42,SSW,203,3.0,5.0,79,0.00,,OVC,0.00,0.00,VWS V15.00,2013-12-12 06:05:00,
2013-12-12 00:08:00,-10.0,-14.7,30.45,SSW,211,3.0,6.0,79,0.00,,OVC,0.00,0.00,VWS V14.01,2013-12-12 06:08:00,
2013-12-12 00:10:00,-8.8,-13.5,30.42,SW,221,4.0,5.0,79,0.00,,OVC,0.00,0.00,VWS V15.00,2013-12-12 06:10:00,
2013-12-12 00:13:00,-9.9,-14.6,30.45,SW,214,4.0,4.0,79,0.00,,OVC,0.00,0.00,VWS V14.01,2013-12-12 06:13:00,
2013-12-12 00:15:00,-8.7,-13.4,30.42,SSW,206,2.0,5.0,79,0.00,,OVC,0.00,0.00,VWS V15.00,2013-12-12 06:15:00,
2013-12-12 00:19:00,-9.8,-14.5,30.44,SSW,204,2.0,6.0,79,0.00,,OVC,0.00,0.00,VWS V14.01,2013-12-12 06:19:00,
2013-12-12 00:20:00,-8.7,-13.4,30.42,SW,225,4.0,5.0,79,0.00,,OVC,0.00,0.00,VWS V15.00,2013-12-12 06:20:00,
2013-12-12 00:24:00,-9.6,-14.3,30.44,SW,227,5.0,5.0,79,0.00,,OVC,0.00,0.00,VWS V14.01,2013-12-12 06:24:00,
2013-12-12 00:25:00,-8.7,-13.4,30.41,South,186,2.0,5.0,79,0.00,,OVC,0.00,0.00,VWS V15.00,2013-12-12 06:25:00,
2013-12-12 00:29:00,-9.3,-14.0,30.44,SW,226,6.0,6.0,79,0.00,,OVC,0.00,0.00,VWS V14.01,2013-12-12 06:29:00,
2013-12-12 00:30:00,-8.7,-13.4,30.41,SW,221,1.0,5.0,79,0.00,,OVC,0.00,0.00,VWS V15.00,2013-12-12 06:30:00,
2013-12-12 00:34:00,-9.1,-13.8,30.44,SW,236,3.0,5.0,79,0.00,,OVC,0.00,0.00,VWS V14.01,2013-12-12 06:34:00,
2013-12-12 00:35:00,-8.6,-13.3,30.41,SW,225,3.0,5.0,79,0.00,,OVC,0.00,0.00,VWS V15.00,2013-12-12 06:35:00,
2013-12-12 00:39:00,-8.9,-13.6,30.43,SW,225,5.0,6.0,79,0.00,,OVC,0.00,0.00,VWS V14.01,2013-12-12 06:39:00,
2013-12-12 00:40:00,-8.5,-13.2,30.41,SSW,199,2.0,6.0,79,0.00,,OVC,0.00,0.00,VWS V15.00,2013-12-12 06:40:00,
2013-12-12 00:44:00,-8.8,-13.5,30.43,SW,217,1.0,5.0,79,0.00,,OVC,0.00,0.00,VWS V14.01,2013-12-12 06:44:00,
2013-12-12 00:45:00,-8.4,-13.1,30.41,SSW,196,5.0,5.0,79,0.00,,OVC,0.00,0.00,VWS V15.00,2013-12-12 06:45:00,
2013-12-12 00:49:00,-8.8,-13.5,30.43,SSW,202,0.0,5.0,79,0.00,,OVC,0.00,0.00,VWS V14.01,2013-12-12 06:49:00,
2013-12-12 00:50:00,-8.4,-13.1,30.41,South,190,1.0,5.0,79,0.00,,OVC,0.00,0.00,VWS V15.00,2013-12-12 06:50:00,
2013-12-12 00:54:00,-8.8,-13.5,30.43,SSW,209,2.0,4.0,79,0.00,,OVC,0.00,0.00,VWS V14.01,2013-12-12 06:54:00,
2013-12-12 00:55:00,-8.3,-13.1,30.41,SSW,196,1.0,4.0,79,0.00,,OVC,0.00,0.00,VWS V15.00,2013-12-12 06:55:00,
2013-12-12 00:59:00,-8.8,-13.5,30.43,SSW,211,1.0,3.0,79,0.00,,OVC,0.00,0.00,VWS V14.01,2013-12-12 06:59:00,
2013-12-12 01:00:00,-8.3,-13.1,30.41,SSW,202,2.0,4.0,79,0.00,,OVC,0.00,0.00,VWS V15.00,2013-12-12 07:00:00,
2013-12-12 01:04:00,-8.9,-13.6,30.43,SW,215,1.0,5.0,79,0.00,,OVC,0.00,0.00,VWS V14.01,2013-12-12 07:04:00,
2013-12-12 01:05:00,-8.2,-12.9,30.40,SSW,197,0.0,6.0,79,0.00,,OVC,0.00,0.00,VWS V15.00,2013-12-12 07:05:00,
2013-12-12 01:09:00,-8.8,-13.5,30.42,South,180,2.0,5.0,79,0.00,,OVC,0.00,0.00,VWS V14.01,2013-12-12 07:09:00,
2013-12-12 01:10:00,-8.2,-12.7,30.40,SSW,195,2.0,5.0,80,0.00,,OVC,0.00,0.00,VWS V15.00,2013-12-12 07:10:00,
2013-12-12 01:14:00,-8.8,-13.5,30.42,SW,223,2.0,4.0,79,0.00,,OVC,0.00,0.00,VWS V14.01,2013-12-12 07:14:00,
2013-12-12 01:15:00,-8.1,-12.6,30.40,SSW,195,0.0,3.0,80,0.00,,OVC,0.00,0.00,VWS V15.00,2013-12-12 07:15:00,
2013-12-12 01:19:00,-8.7,-13.4,30.42,SSW,206,0.0,4.0,79,0.00,,OVC,0.00,0.00,VWS V14.01,2013-12-12 07:19:00,
2013-12-12 01:20:00,-8.0,-12.5,30.40,SSW,208,2.0,3.0,80,0.00,,OVC,0.00,0.00,VWS V15.00,2013-12-12 07:20:00,
2013-12-12 01:24:00,-8.7,-13.4,30.42,SW,229,3.0,5.0,79,0.00,,OVC,0.00,0.00,VWS V14.01,2013-12-12 07:24:00,
2013-12-12 01:25:00,-7.9,-12.4,30.40,SSW,196,1.0,6.0,80,0.00,,OVC,0.00,0.00,VWS V15.00,2013-12-12 07:25:00,
2013-12-12 01:29:00,-8.7,-13.4,30.41,SSW,196,2.0,4.0,79,0.00,,OVC,0.00,0.00,VWS V14.01,2013-12-12 07:29:00,
2013-12-12 01:30:00,-7.7,-12.2,30.40,SSW,200,4.0,6.0,80,0.00,,OVC,0.00,0.00,VWS V15.00,2013-12-12 07:30:00,
2013-12-12 01:34:00,-8.6,-13.3,30.41,SSW,211,3.0,4.0,79,0.00,,OVC,0.00,0.00,VWS V14.01,2013-12-12 07:34:00,
2013-12-12 01:35:00,-7.6,-12.1,30.40,SW,217,2.0,6.0,80,0.00,,OVC,0.00,0.00,VWS V15.00,2013-12-12 07:35:00,
2013-12-12 01:39:00,-8.5,-13.2,30.41,SW,217,4.0,4.0,79,0.00,,OVC,0.00,0.00,VWS V14.01,2013-12-12 07:39:00,
2013-12-12 01:40:00,-7.5,-12.0,30.40,SW,222,4.0,5.0,80,0.00,,OVC,0.00,0.00,VWS V15.00,2013-12-12 07:40:00,
2013-12-12 01:44:00,-8.5,-13.2,30.41,South,178,1.0,4.0,79,0.00,,OVC,0.00,0.00,VWS V14.01,2013-12-12 07:44:00,
2013-12-12 01:45:00,-7.5,-12.0,30.40,SW,218,3.0,6.0,80,0.00,,OVC,0.00,0.00,VWS V15.00,2013-12-12 07:45:00,
2013-12-12 01:49:00,-8.4,-13.1,30.41,SSW,204,2.0,5.0,79,0.00,,OVC,0.00,0.00,VWS V14.01,2013-12-12 07:49:00,
2013-12-12 01:50:00,-7.3,-11.8,30.40,SSW,207,4.0,6.0,80,0.00,,OVC,0.00,0.00,VWS V15.00,2013-12-12 07:50:00,
2013-12-12 01:54:00,-8.3,-13.1,30.41,SSW,207,2.0,4.0,79,0.00,,OVC,0.00,0.00,VWS V14.01,2013-12-12 07:54:00,
2013-12-12 01:55:00,-7.2,-11.7,30.40,SW,219,2.0,5.0,80,0.00,,OVC,0.00,0.00,VWS V15.00,2013-12-12 07:55:00,
2013-12-12 02:00:00,-8.3,-13.1,30.41,SSW,213,2.0,3.0,79,0.00,,OVC,0.00,0.00,VWS V14.01,2013-12-12 08:00:00,
2013-12-12 02:05:00,-8.2,-12.9,30.41,SSW,195,0.0,6.0,79,0.00,,OVC,0.00,0.00,VWS V14.01,2013-12-12 08:05:00,
2013-12-12 02:10:00,-8.2,-12.7,30.40,SW,217,4.0,5.0,80,0.00,,OVC,0.00,0.00,VWS V14.01,2013-12-12 08:10:00,
2013-12-12 02:15:00,-8.1,-12.6,30.40,SSW,195,3.0,3.0,80,0.00,,OVC,0.00,0.00,VWS V14.01,2013-12-12 08:15:00,
2013-12-12 02:20:00,-8.0,-12.5,30.40,SSW,195,1.0,2.0,80,0.00,,OVC,0.00,0.00,VWS V14.01,2013-12-12 08:20:00,
2013-12-12 02:25:00,-7.9,-12.4,30.40,SSW,196,2.0,6.0,80,0.00,,OVC,0.00,0.00,VWS V14.01,2013-12-12 08:25:00,
2013-12-12 02:30:00,-7.8,-12.3,30.40,SW,229,2.0,6.0,80,0.00,,OVC,0.00,0.00,VWS V14.01,2013-12-12 08:30:00,
2013-12-12 02:35:00,-7.7,-12.2,30.40,SW,217,4.0,6.0,80,0.00,,OVC,0.00,0.00,VWS V14.01,2013-12-12 08:35:00,
2013-12-12 02:40:00,-7.6,-12.1,30.40,SW,215,2.0,5.0,80,0.00,,OVC,0.00,0.00,VWS V14.01,2013-12-12 08:40:00,
2013-12-12 02:45:00,-7.5,-12.0,30.40,SSW,206,1.0,6.0,80,0.00,,OVC,0.00,0.00,VWS V14.01,2013-12-12 08:45:00,
2013-12-12 02:50:00,-7.3,-11.8,30.40,SW,221,4.0,5.0,80,0.00,,OVC,0.00,0.00,VWS V14.01,2013-12-12 08:50:00,
2013-12-12 02:55:00,-7.2,-11.7,30.40,SW,215,1.0,5.0,80,0.00,,OVC,0.00,0.00,VWS V14.01,2013-12-12 08:55:00,
2013-12-12 03:00:00,-7.1,-11.6,30.40,SSW,205,4.0,7.0,80,0.00,,OVC,0.00,0.00,VWS V14.01,2013-12-12 09:00:00,
2013-12-12 03:05:00,-7.0,-11.5,30.39,SSW,202,0.0,3.0,80,0.00,,OVC,0.00,0.00,VWS V14.01,2013-12-12 09:05:00,
2013-12-12 03:10:00,-6.9,-11.4,30.39,SSW,207,0.0,3.0,80,0.00,,OVC,0.00,0.00,VWS V14.01,2013-12-12 09:10:00,
2013-12-12 03:15:00,-6.8,-11.3,30.39,SSW,204,2.0,4.0,80,0.00,,OVC,0.00,0.00,VWS V14.01,2013-12-12 09:15:00,
2013-12-12 03:20:00,-6.7,-11.2,30.39,SSW,209,2.0,4.0,80,0.00,,OVC,0.00,0.00,VWS V14.01,2013-12-12 09:20:00,
2013-12-12 03:25:00,-6.6,-10.9,30.39,SW,220,3.0,5.0,81,0.00,,OVC,0.00,0.00,VWS V14.01,2013-12-12 09:25:00,
2013-12-12 03:30:00,-6.5,-11.0,30.39,SW,221,2.0,5.0,80,0.00,,OVC,0.00,0.00,VWS V14.01,2013-12-12 09:30:00,
2013-12-12 03:35:00,-6.5,-11.0,30.38,SW,230,0.0,4.0,80,0.00,,OVC,0.00,0.00,VWS V14.01,2013-12-12 09:35:00,
2013-12-12 03:40:00,-6.4,-10.9,30.38,SSW,192,2.0,4.0,80,0.00,,OVC,0.00,0.00,VWS V14.01,2013-12-12 09:40:00,
2013-12-12 03:45:00,-6.3,-10.9,30.38,SSW,213,3.0,5.0,80,0.00,,OVC,0.00,0.00,VWS V14.01,2013-12-12 09:45:00,
2013-12-12 03:50:00,-6.3,-10.9,30.38,SW,225,1.0,5.0,80,0.00,,OVC,0.00,0.00,VWS V14.01,2013-12-12 09:50:00,
2013-12-12 03:55:00,-6.3,-10.9,30.38,SW,215,1.0,4.0,80,0.00,,OVC,0.00,0.00,VWS V14.01,2013-12-12 09:55:00,
2013-12-12 04:00:00,-6.2,-10.8,30.38,SSW,208,1.0,3.0,80,0.00,,OVC,0.00,0.00,VWS V14.01,2013-12-12 10:00:00,
2013-12-12 04:05:00,-6.2,-10.8,30.38,WSW,241,2.0,4.0,80,0.00,,OVC,0.00,0.00,VWS V14.01,2013-12-12 10:05:00,
2013-12-12 04:10:00,-6.1,-10.6,30.38,SW,232,2.0,3.0,80,0.00,,OVC,0.00,0.00,VWS V14.01,2013-12-12 10:10:00,
2013-12-12 04:15:00,-6.1,-10.4,30.38,SSW,210,3.0,5.0,81,0.00,,OVC,0.00,0.00,VWS V14.01,2013-12-12 10:15:00,
2013-12-12 04:20:00,-6.1,-10.4,30.38,SSW,211,2.0,3.0,81,0.00,,OVC,0.00,0.00,VWS V14.01,2013-12-12 10:20:00,
2013-12-12 04:25:00,-6.0,-10.3,30.39,SW,234,3.0,5.0,81,0.00,,OVC,0.00,0.00,VWS V14.01,2013-12-12 10:25:00,
2013-12-12 04:30:00,-6.0,-10.3,30.39,SW,226,5.0,5.0,81,0.00,,OVC,0.00,0.00,VWS V14.01,2013-12-12 10:30:00,
2013-12-12 04:35:00,-5.9,-10.2,30.38,WSW,245,4.0,5.0,81,0.00,,OVC,0.00,0.00,VWS V14.01,2013-12-12 10:35:00,
2013-12-12 04:40:00,-5.8,-10.1,30.38,SW,231,3.0,4.0,81,0.00,,OVC,0.00,0.00,VWS V14.01,2013-12-12 10:40:00,
2013-12-12 04:45:00,-5.7,-10.0,30.38,SW,227,3.0,4.0,81,0.00,,OVC,0.00,0.00,VWS V14.01,2013-12-12 10:45:00,
2013-12-12 04:50:00,-5.2,-9.5,30.38,SW,230,1.0,4.0,81,0.00,,OVC,0.00,0.00,VWS V15.00,2013-12-12 10:50:00,
2013-12-12 04:51:00,-5.7,-10.0,30.38,SW,217,1.0,4.0,81,0.00,,OVC,0.00,0.00,VWS V14.01,2013-12-12 10:51:00,
2013-12-12 04:55:00,-5.1,-9.4,30.38,SW,230,2.0,3.0,81,0.00,,OVC,0.00,0.00,VWS V15.00,2013-12-12 10:55:00,
2013-12-12 04:56:00,-5.6,-9.9,30.38,SW,217,1.0,3.0,81,0.00,,OVC,0.00,0.00,VWS V14.01,2013-12-12 10:56:00,
2013-12-12 05:00:00,-5.0,-9.3,30.37,SW,230,1.0,2.0,81,0.00,,OVC,0.00,0.00,VWS V15.00,2013-12-12 11:00:00,
2013-12-12 05:01:00,-5.6,-9.9,30.38,SW,232,3.0,4.0,81,0.00,,OVC,0.00,0.00,VWS V14.01,2013-12-12 11:01:00,
2013-12-12 05:05:00,-4.9,-9.2,30.37,SW,230,3.0,3.0,81,0.00,,OVC,0.00,0.00,VWS V15.00,2013-12-12 11:05:00,
2013-12-12 05:06:00,-5.5,-9.8,30.38,SW,231,4.0,5.0,81,0.00,,OVC,0.00,0.00,VWS V14.01,2013-12-12 11:06:00,
2013-12-12 05:10:00,-4.9,-9.2,30.38,SW,230,1.0,3.0,81,0.00,,OVC,0.00,0.00,VWS V15.00,2013-12-12 11:10:00,
2013-12-12 05:11:00,-5.5,-9.8,30.38,SW,232,2.0,4.0,81,0.00,,OVC,0.00,0.00,VWS V14.01,2013-12-12 11:11:00,
2013-12-12 05:15:00,-4.8,-9.1,30.38,SW,230,3.0,3.0,81,0.00,,OVC,0.00,0.00,VWS V15.00,2013-12-12 11:15:00,
2013-12-12 05:16:00,-5.5,-9.8,30.38,SW,231,3.0,4.0,81,0.00,,OVC,0.00,0.00,VWS V14.01,2013-12-12 11:16:00,
2013-12-12 05:20:00,-4.7,-9.0,30.38,SW,230,2.0,3.0,81,0.00,,OVC,0.00,0.00,VWS V15.00,2013-12-12 11:20:00,
2013-12-12 05:21:00,-5.5,-9.8,30.38,SW,231,2.0,4.0,81,0.00,,OVC,0.00,0.00,VWS V14.01,2013-12-12 11:21:00,
2013-12-12 05:25:00,-4.7,-9.0,30.38,SW,230,1.0,4.0,81,0.00,,OVC,0.00,0.00,VWS V15.00,2013-12-12 11:25:00,
2013-12-12 05:26:00,-5.5,-9.8,30.38,SW,232,3.0,4.0,81,0.00,,OVC,0.00,0.00,VWS V14.01,2013-12-12 11:26:00,
2013-12-12 05:30:00,-4.6,-8.9,30.38,SW,230,2.0,3.0,81,0.00,,OVC,0.00,0.00,VWS V15.00,2013-12-12 11:30:00,
2013-12-12 05:31:00,-5.4,-9.7,30.38,SW,227,2.0,4.0,81,0.00,,OVC,0.00,0.00,VWS V14.01,2013-12-12 11:31:00,
2013-12-12 05:35:00,-4.5,-8.8,30.38,SW,230,3.0,3.0,81,0.00,,OVC,0.00,0.00,VWS V15.00,2013-12-12 11:35:00,
2013-12-12 05:36:00,-5.4,-9.7,30.38,SW,230,3.0,4.0,81,0.00,,OVC,0.00,0.00,VWS V14.01,2013-12-12 11:36:00,
2013-12-12 05:40:00,-4.5,-8.8,30.38,SW,230,3.0,4.0,81,0.00,,OVC,0.00,0.00,VWS V15.00,2013-12-12 11:40:00,
2013-12-12 05:41:00,-5.3,-9.6,30.38,SW,230,1.0,3.0,81,0.00,,OVC,0.00,0.00,VWS V14.01,2013-12-12 11:41:00,
2013-12-12 05:45:00,-4.4,-8.5,30.37,SW,230,2.0,4.0,82,0.00,,OVC,0.00,0.00,VWS V15.00,2013-12-12 11:45:00,
2013-12-12 05:47:00,-5.2,-9.5,30.37,SW,230,0.0,0.0,81,0.00,,OVC,0.00,0.00,VWS V14.01,2013-12-12 11:47:00,
2013-12-12 05:50:00,-4.3,-8.4,30.37,SW,230,2.0,4.0,82,0.00,,OVC,0.00,0.00,VWS V15.00,2013-12-12 11:50:00,
2013-12-12 05:52:00,-5.2,-9.5,30.38,SW,230,3.0,3.0,81,0.00,,OVC,0.00,0.00,VWS V14.01,2013-12-12 11:52:00,
2013-12-12 05:55:00,-4.3,-8.4,30.37,SW,234,2.0,3.0,82,0.00,,OVC,0.00,0.00,VWS V15.00,2013-12-12 11:55:00,
2013-12-12 05:57:00,-5.1,-9.4,30.38,SW,230,0.0,2.0,81,0.00,,OVC,0.00,0.00,VWS V14.01,2013-12-12 11:57:00,
2013-12-12 06:00:00,-4.2,-8.3,30.37,SW,234,3.0,4.0,82,0.00,,OVC,0.00,0.00,VWS V15.00,2013-12-12 12:00:00,
2013-12-12 06:02:00,-5.0,-9.3,30.37,SW,230,2.0,2.0,81,0.00,,OVC,0.00,0.00,VWS V14.01,2013-12-12 12:02:00,
2013-12-12 06:05:00,-4.2,-8.3,30.37,SW,227,0.0,4.0,82,0.00,,OVC,0.00,0.00,VWS V15.00,2013-12-12 12:05:00,
2013-12-12 06:07:00,-4.9,-9.2,30.37,SW,230,2.0,3.0,81,0.00,,OVC,0.00,0.00,VWS V14.01,2013-12-12 12:07:00,
2013-12-12 06:10:00,-4.2,-8.5,30.37,SW,227,0.0,2.0,81,0.00,,OVC,0.00,0.00,VWS V15.00,2013-12-12 12:10:00,
2013-12-12 06:12:00,-4.9,-9.2,30.38,SW,230,0.0,2.0,81,0.00,,OVC,0.00,0.00,VWS V14.01,2013-12-12 12:12:00,
2013-12-12 06:15:00,-4.2,-8.5,30.37,SW,227,0.0,3.0,81,0.00,,OVC,0.00,0.00,VWS V15.00,2013-12-12 12:15:00,
2013-12-12 06:17:00,-4.8,-9.1,30.38,SW,230,1.0,3.0,81,0.00,,OVC,0.00,0.00,VWS V14.01,2013-12-12 12:17:00,
2013-12-12 06:20:00,-4.3,-8.6,30.37,SW,228,0.0,2.0,81,0.00,,OVC,0.00,0.00,VWS V15.00,2013-12-12 12:20:00,
2013-12-12 06:22:00,-4.7,-9.0,30.38,SW,230,2.0,2.0,81,0.00,,OVC,0.00,0.00,VWS V14.01,2013-12-12 12:22:00,
2013-12-12 06:25:00,-4.3,-8.6,30.37,SW,228,1.0,2.0,81,0.00,,OVC,0.00,0.00,VWS V15.00,2013-12-12 12:25:00,
2013-12-12 06:27:00,-4.7,-9.0,30.38,SW,230,2.0,2.0,81,0.00,,OVC,0.00,0.00,VWS V14.01,2013-12-12 12:27:00,
2013-12-12 06:30:00,-4.2,-8.5,30.37,SW,228,1.0,2.0,81,0.00,,OVC,0.00,0.00,VWS V15.00,2013-12-12 12:30:00,
2013-12-12 06:32:00,-4.6,-8.9,30.38,SW,230,2.0,3.0,81,0.00,,OVC,0.00,0.00,VWS V14.01,2013-12-12 12:32:00,
2013-12-12 06:35:00,-4.2,-8.3,30.38,SW,228,2.0,3.0,82,0.00,,OVC,0.00,0.00,VWS V15.00,2013-12-12 12:35:00,
2013-12-12 06:37:00,-4.6,-8.9,30.38,SW,230,2.0,3.0,81,0.00,,OVC,0.00,0.00,VWS V14.01,2013-12-12 12:37:00,
2013-12-12 06:40:00,-4.2,-8.3,30.38,SW,228,1.0,3.0,82,0.00,,OVC,0.00,0.00,VWS V15.00,2013-12-12 12:40:00,
2013-12-12 06:42:00,-4.5,-8.6,30.38,SW,230,3.0,3.0,82,0.00,,OVC,0.00,0.00,VWS V14.01,2013-12-12 12:42:00,
2013-12-12 06:45:00,-4.1,-8.2,30.37,SW,229,1.0,2.0,82,0.00,,OVC,0.00,0.00,VWS V15.00,2013-12-12 12:45:00,
2013-12-12 06:47:00,-4.4,-8.5,30.37,SW,230,1.0,4.0,82,0.00,,OVC,0.00,0.00,VWS V14.01,2013-12-12 12:47:00,
2013-12-12 06:50:00,-4.2,-8.5,30.37,SW,228,0.0,2.0,81,0.00,,OVC,0.00,7.00,VWS V15.00,2013-12-12 12:50:00,
2013-12-12 06:52:00,-4.3,-8.4,30.37,SW,230,2.0,2.0,82,0.00,,OVC,0.00,0.00,VWS V14.01,2013-12-12 12:52:00,
2013-12-12 06:55:00,-4.2,-8.5,30.37,SW,228,0.0,0.0,81,0.00,,OVC,0.00,9.00,VWS V15.00,2013-12-12 12:55:00,
2013-12-12 06:57:00,-4.3,-8.4,30.37,SW,234,1.0,3.0,82,0.00,,OVC,0.00,0.00,VWS V14.01,2013-12-12 12:57:00,
2013-12-12 07:00:00,-4.3,-8.6,30.38,SW,228,0.0,0.0,81,0.00,,OVC,0.00,11.00,VWS V15.00,2013-12-12 13:00:00,
2013-12-12 07:02:00,-4.2,-8.3,30.37,SW,234,1.0,3.0,82,0.00,,OVC,0.00,0.00,VWS V14.01,2013-12-12 13:02:00,
2013-12-12 07:05:00,-4.3,-8.6,30.38,SW,228,0.0,0.0,81,0.00,,OVC,0.00,16.00,VWS V15.00,2013-12-12 13:05:00,
2013-12-12 07:07:00,-4.2,-8.3,30.37,SW,227,0.0,0.0,82,0.00,,OVC,0.00,0.00,VWS V14.01,2013-12-12 13:07:00,
2013-12-12 07:10:00,-4.4,-8.7,30.38,SW,228,0.0,0.0,81,0.00,,OVC,0.00,21.00,VWS V15.00,2013-12-12 13:10:00,
2013-12-12 07:12:00,-4.2,-8.5,30.37,SW,228,1.0,2.0,81,0.00,,OVC,0.00,0.00,VWS V14.01,2013-12-12 13:12:00,
2013-12-12 07:15:00,-4.5,-8.8,30.38,SW,228,0.0,0.0,81,0.00,,OVC,0.00,21.00,VWS V15.00,2013-12-12 13:15:00,
2013-12-12 07:17:00,-4.2,-8.5,30.37,SW,228,0.0,1.0,81,0.00,,OVC,0.00,0.00,VWS V14.01,2013-12-12 13:17:00,
2013-12-12 07:20:00,-4.5,-8.8,30.38,SW,228,0.0,0.0,81,0.00,,OVC,0.00,26.00,VWS V15.00,2013-12-12 13:20:00,
2013-12-12 07:22:00,-4.3,-8.6,30.37,SW,227,1.0,2.0,81,0.00,,OVC,0.00,0.00,VWS V14.01,2013-12-12 13:22:00,
2013-12-12 07:25:00,-4.6,-8.9,30.38,SW,228,0.0,0.0,81,0.00,,OVC,0.00,25.00,VWS V15.00,2013-12-12 13:25:00,
2013-12-12 07:27:00,-4.3,-8.6,30.37,SW,227,1.0,1.0,81,0.00,,OVC,0.00,0.00,VWS V14.01,2013-12-12 13:27:00,
2013-12-12 07:30:00,-4.6,-8.9,30.38,SW,228,1.0,2.0,81,0.00,,OVC,0.00,25.00,VWS V15.00,2013-12-12 13:30:00,
2013-12-12 07:32:00,-4.2,-8.3,30.38,SW,228,2.0,2.0,82,0.00,,OVC,0.00,0.00,VWS V14.01,2013-12-12 13:32:00,
2013-12-12 07:35:00,-4.6,-8.9,30.38,SW,228,2.0,2.0,81,0.00,,OVC,0.00,23.00,VWS V15.00,2013-12-12 13:35:00,
2013-12-12 07:37:00,-4.2,-8.3,30.38,SW,228,3.0,3.0,82,0.00,,OVC,0.00,0.00,VWS V14.01,2013-12-12 13:37:00,
2013-12-12 07:40:00,-4.6,-8.9,30.38,SW,228,2.0,2.0,81,0.00,,OVC,0.00,26.00,VWS V15.00,2013-12-12 13:40:00,
2013-12-12 07:42:00,-4.2,-8.3,30.38,SW,228,1.0,2.0,82,0.00,,OVC,0.00,0.00,VWS V14.01,2013-12-12 13:42:00,
2013-12-12 07:45:00,-4.6,-8.9,30.38,SW,228,1.0,2.0,81,0.00,,OVC,0.00,30.00,VWS V15.00,2013-12-12 13:45:00,
2013-12-12 07:47:00,-4.2,-8.3,30.37,SW,228,0.0,2.0,82,0.00,,OVC,0.00,0.00,VWS V14.01,2013-12-12 13:47:00,
2013-12-12 07:50:00,-4.5,-8.8,30.38,SW,228,0.0,2.0,81,0.00,,OVC,0.00,23.00,VWS V15.00,2013-12-12 13:50:00,
2013-12-12 07:52:00,-4.2,-8.5,30.37,SW,228,0.0,0.0,81,0.00,,OVC,0.00,7.00,VWS V14.01,2013-12-12 13:52:00,
2013-12-12 07:55:00,-4.5,-8.8,30.38,SW,232,3.0,3.0,81,0.00,,OVC,0.00,33.00,VWS V15.00,2013-12-12 13:55:00,
2013-12-12 07:57:00,-4.2,-8.5,30.38,SW,228,0.0,0.0,81,0.00,,OVC,0.00,9.00,VWS V14.01,2013-12-12 13:57:00,
2013-12-12 08:00:00,-4.2,-8.3,30.39,West,262,4.0,6.0,82,0.00,,OVC,0.00,56.00,VWS V15.00,2013-12-12 14:00:00,
2013-12-12 08:02:00,-4.3,-8.6,30.38,SW,228,0.0,0.0,81,0.00,,OVC,0.00,12.00,VWS V14.01,2013-12-12 14:02:00,
2013-12-12 08:05:00,-3.7,-7.8,30.39,West,259,3.0,5.0,82,0.00,,OVC,0.00,49.00,VWS V15.00,2013-12-12 14:05:00,
2013-12-12 08:07:00,-4.3,-8.6,30.38,SW,228,0.0,0.0,81,0.00,,OVC,0.00,16.00,VWS V14.01,2013-12-12 14:07:00,
2013-12-12 08:10:00,-3.3,-7.4,30.39,West,263,3.0,4.0,82,0.00,,OVC,0.00,65.00,VWS V15.00,2013-12-12 14:10:00,
2013-12-12 08:13:00,-4.4,-8.7,30.38,SW,228,0.0,0.0,81,0.00,,OVC,0.00,23.00,VWS V14.01,2013-12-12 14:13:00,
2013-12-12 08:15:00,-3.1,-7.2,30.38,West,264,3.0,4.0,82,0.00,,OVC,0.00,53.00,VWS V15.00,2013-12-12 14:15:00,
2013-12-12 08:18:00,-4.5,-8.8,30.38,SW,228,0.0,0.0,81,0.00,,OVC,0.00,25.00,VWS V14.01,2013-12-12 14:18:00,
2013-12-12 08:20:00,-2.8,-6.9,30.39,West,267,2.0,6.0,82,0.00,,OVC,0.00,105.00,VWS V15.00,2013-12-12 14:20:00,
2013-12-12 08:23:00,-4.5,-8.8,30.38,SW,228,0.0,0.0,81,0.00,,OVC,0.00,26.00,VWS V14.01,2013-12-12 14:23:00,
2013-12-12 08:25:00,-2.5,-6.6,30.39,West,267,2.0,3.0,82,0.00,,OVC,0.00,107.00,VWS V15.00,2013-12-12 14:25:00,
2013-12-12 08:28:00,-4.6,-8.9,30.38,SW,228,0.0,0.0,81,0.00,,OVC,0.00,25.00,VWS V14.01,2013-12-12 14:28:00,
2013-12-12 08:30:00,-2.4,-6.5,30.39,West,265,2.0,5.0,82,0.00,,OVC,0.00,39.00,VWS V15.00,2013-12-12 14:30:00,
2013-12-12 08:33:00,-4.6,-8.9,30.38,SW,228,1.0,2.0,81,0.00,,OVC,0.00,23.00,VWS V14.01,2013-12-12 14:33:00,
2013-12-12 08:35:00,-2.1,-6.2,30.39,West,263,0.0,4.0,82,0.00,,OVC,0.00,51.00,VWS V15.00,2013-12-12 14:35:00,
2013-12-12 08:38:00,-4.6,-8.9,30.38,SW,228,1.0,2.0,81,0.00,,OVC,0.00,23.00,VWS V14.01,2013-12-12 14:38:00,
2013-12-12 08:40:00,-1.9,-6.3,30.39,West,261,3.0,5.0,81,0.00,,OVC,0.00,58.00,VWS V15.00,2013-12-12 14:40:00,
2013-12-12 08:43:00,-4.6,-8.9,30.38,SW,228,1.0,2.0,81,0.00,,OVC,0.00,28.00,VWS V14.01,2013-12-12 14:43:00,
2013-12-12 08:45:00,-1.7,-5.8,30.39,West,261,3.0,4.0,82,0.00,,OVC,0.00,63.00,VWS V15.00,2013-12-12 14:45:00,
2013-12-12 08:48:00,-4.6,-8.9,30.38,SW,228,0.0,2.0,81,0.00,,OVC,0.00,30.00,VWS V14.01,2013-12-12 14:48:00,
2013-12-12 08:50:00,-1.3,-5.4,30.39,West,261,1.0,4.0,82,0.00,,OVC,0.00,158.00,VWS V15.00,2013-12-12 14:50:00,
2013-12-12 08:53:00,-4.5,-8.8,30.38,SW,228,0.0,2.0,81,0.00,,OVC,0.00,21.00,VWS V14.01,2013-12-12 14:53:00,
2013-12-12 08:55:00,-1.0,-5.4,30.39,West,261,3.0,4.0,81,0.00,,OVC,0.00,88.00,VWS V15.00,2013-12-12 14:55:00,
2013-12-12 08:58:00,-4.5,-8.8,30.38,West,265,6.0,6.0,81,0.00,,OVC,0.00,65.00,VWS V14.01,2013-12-12 14:58:00,
2013-12-12 09:00:00,-0.7,-5.1,30.39,WSW,253,3.0,5.0,81,0.00,,OVC,0.00,98.00,VWS V15.00,2013-12-12 15:00:00,
2013-12-12 09:03:00,-4.1,-8.2,30.39,West,261,3.0,5.0,82,0.00,,OVC,0.00,44.00,VWS V14.01,2013-12-12 15:03:00,
2013-12-12 09:05:00,-0.4,-4.8,30.39,WSW,249,1.0,6.0,81,0.00,,OVC,0.00,70.00,VWS V15.00,2013-12-12 15:05:00,
2013-12-12 09:08:00,-3.6,-7.7,30.39,West,259,0.0,3.0,82,0.00,,OVC,0.00,51.00,VWS V14.01,2013-12-12 15:08:00,
2013-12-12 09:10:00,-0.2,-4.6,30.39,West,269,4.0,7.0,81,0.00,,OVC,0.00,74.00,VWS V15.00,2013-12-12 15:10:00,
2013-12-12 09:13:00,-3.2,-7.3,30.39,West,265,2.0,4.0,82,0.00,,OVC,0.00,51.00,VWS V14.01,2013-12-12 15:13:00,
2013-12-12 09:15:00,-0.1,-4.4,30.39,West,259,6.0,7.0,81,0.00,,OVC,0.00,91.00,VWS V15.00,2013-12-12 15:15:00,
2013-12-12 09:18:00,-3.0,-7.1,30.39,West,268,2.0,6.0,82,0.00,,OVC,0.00,81.00,VWS V14.01,2013-12-12 15:18:00,
2013-12-12 09:20:00,-0.1,-4.4,30.39,West,268,5.0,7.0,81,0.00,,OVC,0.00,65.00,VWS V15.00,2013-12-12 15:20:00,
2013-12-12 09:23:00,-2.7,-6.8,30.39,West,268,1.0,3.0,82,0.00,,OVC,0.00,72.00,VWS V14.01,2013-12-12 15:23:00,
2013-12-12 09:25:00,0.2,-4.2,30.38,West,265,3.0,7.0,81,0.00,,OVC,0.00,128.00,VWS V15.00,2013-12-12 15:25:00,
2013-12-12 09:28:00,-2.4,-6.5,30.39,West,272,4.0,5.0,82,0.00,,OVC,0.00,49.00,VWS V14.01,2013-12-12 15:28:00,
2013-12-12 09:30:00,0.3,-4.1,30.38,West,278,5.0,7.0,81,0.00,,OVC,0.00,76.00,VWS V15.00,2013-12-12 15:30:00,
2013-12-12 09:33:00,-2.3,-6.4,30.39,West,265,1.0,4.0,82,0.00,,OVC,0.00,37.00,VWS V14.01,2013-12-12 15:33:00,
2013-12-12 09:35:00,0.4,-4.0,30.38,West,260,1.0,6.0,81,0.00,,OVC,0.00,88.00,VWS V15.00,2013-12-12 15:35:00,
2013-12-12 09:38:00,-2.0,-6.4,30.39,West,263,2.0,2.0,81,0.00,,OVC,0.00,56.00,VWS V14.01,2013-12-12 15:38:00,
2013-12-12 09:40:00,0.6,-3.8,30.38,WSW,244,5.0,6.0,81,0.00,,OVC,0.00,93.00,VWS V15.00,2013-12-12 15:40:00,
2013-12-12 09:43:00,-1.9,-6.0,30.39,West,262,2.0,4.0,82,0.00,,OVC,0.00,58.00,VWS V14.01,2013-12-12 15:43:00,
2013-12-12 09:45:00,0.6,-3.8,30.38,WSW,250,3.0,7.0,81,0.00,,OVC,0.00,176.00,VWS V15.00,2013-12-12 15:45:00,
2013-12-12 09:48:00,-1.6,-5.7,30.39,West,259,3.0,3.0,82,0.00,,OVC,0.00,70.00,VWS V14.01,2013-12-12 15:48:00,
2013-12-12 09:50:00,0.9,-3.5,30.37,WSW,245,4.0,7.0,81,0.00,,OVC,0.00,105.00,VWS V15.00,2013-12-12 15:50:00,
2013-12-12 09:53:00,-1.2,-5.3,30.39,West,261,3.0,3.0,82,0.00,,OVC,0.00,172.00,VWS V14.01,2013-12-12 15:53:00,
2013-12-12 09:55:00,1.3,-3.2,30.37,West,265,5.0,9.0,81,0.00,,OVC,0.00,70.00,VWS V15.00,2013-12-12 15:55:00,
2013-12-12 09:58:00,-0.9,-5.3,30.39,WSW,257,0.0,4.0,81,0.00,,OVC,0.00,86.00,VWS V14.01,2013-12-12 15:58:00,
2013-12-12 10:00:00,1.6,-2.9,30.37,WSW,250,5.0,10.0,81,0.00,,OVC,0.00,227.00,VWS V15.00,2013-12-12 16:00:00,
2013-12-12 10:04:00,-0.6,-5.0,30.39,WSW,244,2.0,6.0,81,0.00,,OVC,0.00,76.00,VWS V14.01,2013-12-12 16:04:00,
2013-12-12 10:05:00,2.0,-2.2,30.37,West,269,4.0,9.0,82,0.00,,OVC,0.00,199.00,VWS V15.00,2013-12-12 16:05:00,
2013-12-12 10:09:00,-0.3,-4.7,30.39,WSW,250,5.0,6.0,81,0.00,,OVC,0.00,62.00,VWS V14.01,2013-12-12 16:09:00,
2013-12-12 10:10:00,2.4,-2.1,30.37,West,267,6.0,8.0,81,0.00,,OVC,0.00,227.00,VWS V15.00,2013-12-12 16:10:00,
2013-12-12 10:14:00,-0.1,-4.5,30.39,West,261,4.0,5.0,81,0.00,,OVC,0.00,74.00,VWS V14.01,2013-12-12 16:14:00,
2013-12-12 10:15:00,2.7,-1.8,30.37,WSW,247,5.0,8.0,81,0.00,,OVC,0.00,218.00,VWS V15.00,2013-12-12 16:15:00,
2013-12-12 10:19:00,-0.1,-4.4,30.39,WSW,254,4.0,6.0,81,0.00,,OVC,0.00,51.00,VWS V14.01,2013-12-12 16:19:00,
2013-12-12 10:20:00,2.8,-1.7,30.36,WSW,244,5.0,7.0,81,0.00,,OVC,0.00,162.00,VWS V15.00,2013-12-12 16:20:00,
2013-12-12 10:24:00,0.1,-4.3,30.39,West,278,4.0,7.0,81,0.00,,OVC,0.00,121.00,VWS V14.01,2013-12-12 16:24:00,
2013-12-12 10:25:00,2.9,-1.6,30.36,WSW,248,8.0,8.0,81,0.00,,OVC,0.00,327.00,VWS V15.00,2013-12-12 16:25:00,
2013-12-12 10:29:00,0.2,-4.2,30.38,WSW,245,6.0,7.0,81,0.00,,OVC,0.00,214.00,VWS V14.01,2013-12-12 16:29:00,
2013-12-12 10:30:00,3.0,-1.5,30.36,WSW,239,5.0,8.0,81,0.00,,OVC,0.00,90.00,VWS V15.00,2013-12-12 16:30:00,
2013-12-12 10:34:00,0.4,-4.0,30.38,West,261,4.0,6.0,81,0.00,,OVC,0.00,62.00,VWS V14.01,2013-12-12 16:34:00,
2013-12-12 10:35:00,3.1,-1.4,30.36,WSW,239,6.0,7.0,81,0.00,,OVC,0.00,167.00,VWS V15.00,2013-12-12 16:35:00,
2013-12-12 10:39:00,0.5,-3.9,30.38,WSW,239,5.0,6.0,81,0.00,,OVC,0.00,76.00,VWS V14.01,2013-12-12 16:39:00,
2013-12-12 10:40:00,3.3,-1.2,30.36,WSW,239,4.0,8.0,81,0.00,,OVC,0.00,79.00,VWS V15.00,2013-12-12 16:40:00,
2013-12-12 10:44:00,0.6,-3.8,30.38,WSW,238,4.0,6.0,81,0.00,,OVC,0.00,134.00,VWS V14.01,2013-12-12 16:44:00,
2013-12-12 10:45:00,3.7,-0.8,30.36,WSW,248,8.0,9.0,81,0.00,,OVC,0.00,116.00,VWS V15.00,2013-12-12 16:45:00,
2013-12-12 10:49:00,0.8,-3.7,30.38,West,260,4.0,5.0,81,0.00,,OVC,0.00,186.00,VWS V14.01,2013-12-12 16:49:00,
2013-12-12 10:50:00,4.1,-0.4,30.36,West,262,3.0,9.0,81,0.00,,OVC,0.00,287.00,VWS V15.00,2013-12-12 16:50:00,
2013-12-12 10:54:00,1.1,-3.4,30.37,WSW,257,3.0,7.0,81,0.00,,OVC,0.00,53.00,VWS V14.01,2013-12-12 16:54:00,
2013-12-12 10:55:00,4.3,-0.2,30.35,West,260,3.0,12.0,81,0.00,,OVC,0.00,181.00,VWS V15.00,2013-12-12 16:55:00,
2013-12-12 10:59:00,1.4,-3.1,30.37,WSW,238,4.0,7.0,81,0.00,,OVC,0.00,118.00,VWS V14.01,2013-12-12 16:59:00,
2013-12-12 11:00:00,4.4,-0.1,30.35,WSW,250,5.0,8.0,81,0.00,,OVC,0.00,167.00,VWS V15.00,2013-12-12 17:00:00,
2013-12-12 11:04:00,1.8,-2.7,30.37,WSW,244,7.0,9.0,81,0.00,,OVC,0.00,285.00,VWS V14.01,2013-12-12 17:04:00,
2013-12-12 11:05:00,4.4,-0.4,30.35,WSW,250,4.0,8.0,80,0.00,,OVC,0.00,355.00,VWS V15.00,2013-12-12 17:05:00,
2013-12-12 11:09:00,2.2,-2.3,30.37,West,271,2.0,8.0,81,0.00,,OVC,0.00,278.00,VWS V14.01,2013-12-12 17:09:00,
2013-12-12 11:10:00,4.2,-0.3,30.35,SW,234,5.0,8.0,81,0.00,,OVC,0.00,141.00,VWS V15.00,2013-12-12 17:10:00,
2013-12-12 11:14:00,2.6,-1.9,30.37,West,269,7.0,8.0,81,0.00,,OVC,0.00,241.00,VWS V14.01,2013-12-12 17:14:00,
2013-12-12 11:15:00,4.5,0.0,30.35,WSW,247,6.0,8.0,81,0.00,,OVC,0.00,137.00,VWS V15.00,2013-12-12 17:15:00,
2013-12-12 11:19:00,2.8,-1.7,30.36,WSW,246,5.0,6.0,81,0.00,,OVC,0.00,195.00,VWS V14.01,2013-12-12 17:19:00,
2013-12-12 11:20:00,4.8,0.3,30.34,WSW,248,7.0,8.0,81,0.00,,OVC,0.00,148.00,VWS V15.00,2013-12-12 17:20:00,
2013-12-12 11:24:00,2.8,-1.7,30.36,WSW,244,5.0,6.0,81,0.00,,OVC,0.00,250.00,VWS V14.01,2013-12-12 17:24:00,
2013-12-12 11:25:00,4.9,0.4,30.34,WSW,250,6.0,9.0,81,0.00,,OVC,0.00,156.00,VWS V15.00,2013-12-12 17:25:00,
2013-12-12 11:29:00,3.0,-1.5,30.36,WSW,240,5.0,8.0,81,0.00,,OVC,0.00,193.00,VWS V14.01,2013-12-12 17:29:00,
2013-12-12 11:30:00,5.1,0.6,30.33,WSW,240,4.0,7.0,81,0.00,,OVC,0.00,141.00,VWS V15.00,2013-12-12 17:30:00,
2013-12-12 11:34:00,3.1,-1.4,30.36,WSW,243,5.0,7.0,81,0.00,,OVC,0.00,72.00,VWS V14.01,2013-12-12 17:34:00,
2013-12-12 11:35:00,5.4,0.9,30.34,WSW,243,9.0,10.0,81,0.00,,OVC,0.00,135.00,VWS V15.00,2013-12-12 17:35:00,
2013-12-12 11:39:00,3.2,-1.3,30.36,WSW,247,6.0,8.0,81,0.00,,OVC,0.00,100.00,VWS V14.01,2013-12-12 17:39:00,
2013-12-12 11:40:00,5.5,0.9,30.34,WSW,243,8.0,9.0,81,0.00,,OVC,0.00,134.00,VWS V15.00,2013-12-12 17:40:00,
2013-12-12 11:44:00,3.5,-1.0,30.36,WSW,240,8.0,9.0,81,0.00,,OVC,0.00,118.00,VWS V14.01,2013-12-12 17:44:00,
2013-12-12 11:45:00,5.8,1.2,30.34,WSW,248,8.0,11.0,81,0.00,,OVC,0.00,134.00,VWS V15.00,2013-12-12 17:45:00,
2013-12-12 11:49:00,4.1,-0.4,30.36,WSW,252,7.0,8.0,81,0.00,,OVC,0.00,146.00,VWS V14.01,2013-12-12 17:49:00,
2013-12-12 11:50:00,5.9,1.3,30.33,WSW,248,6.0,10.0,81,0.00,,OVC,0.00,195.00,VWS V15.00,2013-12-12 17:50:00,
2013-12-12 11:54:00,4.2,-0.3,30.35,WSW,252,5.0,12.0,81,0.00,,OVC,0.00,236.00,VWS V14.01,2013-12-12 17:54:00,
2013-12-12 11:55:00,6.1,1.5,30.33,WNW,288,9.0,10.0,81,0.00,,OVC,0.00,95.00,VWS V15.00,2013-12-12 17:55:00,
2013-12-12 11:59:00,4.4,-0.1,30.35,WSW,250,6.0,8.0,81,0.00,,OVC,0.00,165.00,VWS V14.01,2013-12-12 17:59:00,
2013-12-12 12:00:00,6.3,1.7,30.33,WSW,252,10.0,11.0,81,0.00,,OVC,0.00,125.00,VWS V15.00,2013-12-12 18:00:00,
2013-12-12 12:04:00,4.5,-0.3,30.35,West,260,6.0,8.0,80,0.00,,OVC,0.00,130.00,VWS V14.01,2013-12-12 18:04:00,
2013-12-12 12:05:00,6.4,1.8,30.33,West,265,5.0,14.0,81,0.00,,OVC,0.00,128.00,VWS V15.00,2013-12-12 18:05:00,
2013-12-12 12:09:00,4.3,-0.5,30.35,WSW,239,5.0,8.0,80,0.00,,OVC,0.00,195.00,VWS V14.01,2013-12-12 18:09:00,
2013-12-12 12:10:00,6.6,2.0,30.33,WNW,283,12.0,12.0,81,0.00,,OVC,0.00,141.00,VWS V15.00,2013-12-12 18:10:00,
2013-12-12 12:14:00,4.3,-0.2,30.35,SW,235,6.0,7.0,81,0.00,,OVC,0.00,130.00,VWS V14.01,2013-12-12 18:14:00,
2013-12-12 12:15:00,6.7,1.9,30.33,WSW,246,8.0,13.0,80,0.00,,OVC,0.00,160.00,VWS V15.00,2013-12-12 18:15:00,
2013-12-12 12:19:00,4.7,0.2,30.34,WSW,246,6.0,8.0,81,0.00,,OVC,0.00,135.00,VWS V14.01,2013-12-12 18:19:00,
2013-12-12 12:20:00,6.7,1.9,30.33,WSW,250,5.0,11.0,80,0.00,,OVC,0.00,149.00,VWS V15.00,2013-12-12 18:20:00,
2013-12-12 12:24:00,4.9,0.4,30.34,WSW,242,8.0,9.0,81,0.00,,OVC,0.00,153.00,VWS V14.01,2013-12-12 18:24:00,
2013-12-12 12:25:00,7.0,2.4,30.33,WNW,298,8.0,9.0,81,0.00,,OVC,0.00,148.00,VWS V15.00,2013-12-12 18:25:00,
2013-12-12 12:29:00,5.0,0.5,30.33,WSW,238,4.0,7.0,81,0.00,,OVC,0.00,148.00,VWS V14.01,2013-12-12 18:29:00,
2013-12-12 12:30:00,7.2,2.3,30.32,West,269,8.0,11.0,80,0.00,,OVC,0.00,134.00,VWS V15.00,2013-12-12 18:30:00,
2013-12-12 12:34:00,5.3,0.8,30.34,WSW,243,8.0,9.0,81,0.00,,OVC,0.00,139.00,VWS V14.01,2013-12-12 18:34:00,
2013-12-12 12:35:00,7.2,2.3,30.32,West,261,9.0,9.0,80,0.00,,OVC,0.00,120.00,VWS V15.00,2013-12-12 18:35:00,
2013-12-12 12:39:00,5.5,0.9,30.34,WSW,246,7.0,9.0,81,0.00,,OVC,0.00,134.00,VWS V14.01,2013-12-12 18:39:00,
2013-12-12 12:40:00,7.3,2.4,30.32,WSW,257,7.0,11.0,80,0.00,,OVC,0.00,111.00,VWS V15.00,2013-12-12 18:40:00,
2013-12-12 12:44:00,5.6,1.0,30.34,WSW,244,8.0,11.0,81,0.00,,OVC,0.00,130.00,VWS V14.01,2013-12-12 18:44:00,
2013-12-12 12:45:00,7.3,2.4,30.32,WSW,254,6.0,10.0,80,0.00,,OVC,0.00,95.00,VWS V15.00,2013-12-12 18:45:00,
2013-12-12 12:49:00,5.9,1.3,30.34,WSW,247,5.0,10.0,81,0.00,,OVC,0.00,146.00,VWS V14.01,2013-12-12 18:49:00,
2013-12-12 12:50:00,7.4,2.5,30.32,WNW,297,2.0,11.0,80,0.00,,OVC,0.00,77.00,VWS V15.00,2013-12-12 18:50:00,
2013-12-12 12:54:00,6.2,1.6,30.34,WSW,251,10.0,10.0,81,0.00,,OVC,0.00,135.00,VWS V14.01,2013-12-12 18:54:00,
2013-12-12 12:55:00,7.4,2.5,30.32,West,269,9.0,10.0,80,0.00,,OVC,0.00,70.00,VWS V15.00,2013-12-12 18:55:00,
2013-12-12 13:00:00,6.2,1.6,30.34,WSW,244,4.0,9.0,81,0.00,,OVC,0.00,123.00,VWS V14.01,2013-12-12 19:00:00,
2013-12-12 13:05:00,6.4,1.8,30.33,WSW,253,6.0,14.0,81,0.00,,OVC,0.00,127.00,VWS V14.01,2013-12-12 19:05:00,
2013-12-12 13:10:00,6.6,2.0,30.33,WSW,246,7.0,11.0,81,0.00,,OVC,0.00,132.00,VWS V14.01,2013-12-12 19:10:00,
2013-12-12 13:15:00,6.7,1.9,30.33,WSW,248,10.0,13.0,80,0.00,,OVC,0.00,156.00,VWS V14.01,2013-12-12 19:15:00,
2013-12-12 13:20:00,6.7,1.9,30.33,West,279,7.0,11.0,80,0.00,,OVC,0.00,153.00,VWS V14.01,2013-12-12 19:20:00,
2013-12-12 13:25:00,6.9,2.3,30.33,WNW,292,3.0,7.0,81,0.00,,OVC,0.00,148.00,VWS V14.01,2013-12-12 19:25:00,
2013-12-12 13:30:00,7.2,2.3,30.33,West,277,10.0,10.0,80,0.00,,OVC,0.00,137.00,VWS V14.01,2013-12-12 19:30:00,
2013-12-12 13:35:00,7.2,2.3,30.32,WSW,250,7.0,8.0,80,0.00,,OVC,0.00,125.00,VWS V14.01,2013-12-12 19:35:00,
2013-12-12 13:40:00,7.2,2.3,30.32,West,267,4.0,11.0,80,0.00,,OVC,0.00,114.00,VWS V14.01,2013-12-12 19:40:00,
2013-12-12 13:45:00,7.3,2.4,30.32,West,266,5.0,10.0,80,0.00,,OVC,0.00,98.00,VWS V14.01,2013-12-12 19:45:00,
2013-12-12 13:50:00,7.3,2.4,30.32,West,274,9.0,11.0,80,0.00,,OVC,0.00,83.00,VWS V14.01,2013-12-12 19:50:00,
2013-12-12 13:55:00,7.4,2.5,30.32,West,259,7.0,9.0,80,0.00,,OVC,0.00,70.00,VWS V14.01,2013-12-12 19:55:00,
2013-12-12 14:00:00,7.4,2.5,30.32,WNW,282,6.0,10.0,80,0.00,,OVC,0.00,67.00,VWS V14.01,2013-12-12 20:00:00,
2013-12-12 14:05:00,7.5,2.6,30.33,West,267,8.0,10.0,80,0.00,,OVC,0.00,62.00,VWS V14.01,2013-12-12 20:05:00,
2013-12-12 14:10:00,7.5,2.6,30.32,WSW,248,6.0,9.0,80,0.00,,OVC,0.00,58.00,VWS V14.01,2013-12-12 20:10:00,
2013-12-12 14:15:00,7.5,2.6,30.32,West,271,8.0,10.0,80,0.00,,OVC,0.00,54.00,VWS V14.01,2013-12-12 20:15:00,
2013-12-12 14:20:00,7.6,2.7,30.32,West,268,5.0,7.0,80,0.00,,OVC,0.00,51.00,VWS V14.01,2013-12-12 20:20:00,
2013-12-12 14:25:00,7.6,2.7,30.32,West,279,6.0,10.0,80,0.00,,OVC,0.00,47.00,VWS V14.01,2013-12-12 20:25:00,
2013-12-12 14:30:00,7.7,2.8,30.32,West,260,5.0,9.0,80,0.00,,OVC,0.00,46.00,VWS V14.01,2013-12-12 20:30:00,
2013-12-12 14:35:00,7.7,2.8,30.31,West,269,5.0,8.0,80,0.00,,OVC,0.00,44.00,VWS V14.01,2013-12-12 20:35:00,
2013-12-12 14:40:00,7.8,2.9,30.31,West,273,8.0,11.0,80,0.00,,OVC,0.00,37.00,VWS V14.01,2013-12-12 20:40:00,
2013-12-12 14:45:00,7.8,2.9,30.31,West,265,7.0,10.0,80,0.00,,OVC,0.00,32.00,VWS V14.01,2013-12-12 20:45:00,
2013-12-12 14:50:00,7.6,3.0,30.33,West,272,7.0,8.0,81,0.00,,OVC,0.00,9.00,VWS V15.00,2013-12-12 20:50:00,
2013-12-12 14:51:00,7.8,2.9,30.31,West,268,7.0,7.0,80,0.00,,OVC,0.00,26.00,VWS V14.01,2013-12-12 20:51:00,
2013-12-12 14:55:00,7.6,3.0,30.33,West,267,7.0,9.0,81,0.00,,OVC,0.00,7.00,VWS V15.00,2013-12-12 20:55:00,
2013-12-12 14:56:00,7.8,2.9,30.30,WSW,245,7.0,7.0,80,0.00,,OVC,0.00,21.00,VWS V14.01,2013-12-12 20:56:00,
2013-12-12 15:00:00,7.6,3.0,30.33,West,271,7.0,8.0,81,0.00,,OVC,0.00,7.00,VWS V15.00,2013-12-12 21:00:00,
2013-12-12 15:01:00,7.8,2.9,30.31,West,261,8.0,10.0,80,0.00,,OVC,0.00,18.00,VWS V14.01,2013-12-12 21:01:00,
2013-12-12 15:05:00,7.6,3.0,30.33,WSW,248,6.0,8.0,81,0.00,,OVC,0.00,0.00,VWS V15.00,2013-12-12 21:05:00,
2013-12-12 15:06:00,7.8,2.9,30.31,WSW,255,6.0,10.0,80,0.00,,OVC,0.00,16.00,VWS V14.01,2013-12-12 21:06:00,
2013-12-12 15:10:00,7.6,3.0,30.33,WSW,248,6.0,8.0,81,0.00,,OVC,0.00,0.00,VWS V15.00,2013-12-12 21:10:00,
2013-12-12 15:11:00,7.8,2.9,30.31,WSW,248,4.0,8.0,80,0.00,,OVC,0.00,16.00,VWS V14.01,2013-12-12 21:11:00,
2013-12-12 15:15:00,7.6,3.0,30.33,West,273,6.0,7.0,81,0.00,,OVC,0.00,0.00,VWS V15.00,2013-12-12 21:15:00,
2013-12-12 15:16:00,7.7,2.8,30.32,WSW,256,7.0,10.0,80,0.00,,OVC,0.00,12.00,VWS V14.01,2013-12-12 21:16:00,
2013-12-12 15:20:00,7.7,3.1,30.33,WSW,257,5.0,8.0,81,0.00,,OVC,0.00,0.00,VWS V15.00,2013-12-12 21:20:00,
2013-12-12 15:21:00,7.7,2.8,30.32,West,266,9.0,10.0,80,0.00,,OVC,0.00,14.00,VWS V14.01,2013-12-12 21:21:00,
2013-12-12 15:25:00,7.7,3.1,30.33,WSW,257,5.0,9.0,81,0.00,,OVC,0.00,0.00,VWS V15.00,2013-12-12 21:25:00,
2013-12-12 15:26:00,7.7,3.1,30.32,West,267,5.0,9.0,81,0.00,,OVC,0.00,14.00,VWS V14.01,2013-12-12 21:26:00,
2013-12-12 15:27:00,7.7,3.1,30.33,West,265,6.0,9.0,81,0.00,,OVC,0.00,14.00,VWS V14.01,2013-12-12 21:27:00,
2013-12-12 15:30:00,7.7,3.1,30.33,WSW,258,4.0,7.0,81,0.00,,OVC,0.00,0.00,VWS V15.00,2013-12-12 21:30:00,
2013-12-12 15:32:00,7.6,3.0,30.33,West,273,8.0,9.0,81,0.00,,OVC,0.00,11.00,VWS V14.01,2013-12-12 21:32:00,
2013-12-12 15:35:00,7.7,3.1,30.33,West,263,7.0,7.0,81,0.00,,OVC,0.00,0.00,VWS V15.00,2013-12-12 21:35:00,
2013-12-12 15:37:00,7.6,3.0,30.32,WSW,244,7.0,8.0,81,0.00,,OVC,0.00,9.00,VWS V14.01,2013-12-12 21:37:00,
2013-12-12 15:40:00,7.7,3.1,30.33,West,263,6.0,9.0,81,0.00,,OVC,0.00,0.00,VWS V15.00,2013-12-12 21:40:00,
2013-12-12 15:42:00,7.6,3.0,30.32,WSW,244,6.0,6.0,81,0.00,,OVC,0.00,11.00,VWS V14.01,2013-12-12 21:42:00,
2013-12-12 15:45:00,7.6,3.0,30.33,WSW,248,5.0,6.0,81,0.00,,OVC,0.00,0.00,VWS V15.00,2013-12-12 21:45:00,
2013-12-12 15:47:00,7.6,3.0,30.33,WSW,258,7.0,8.0,81,0.00,,OVC,0.00,9.00,VWS V14.01,2013-12-12 21:47:00,
2013-12-12 15:50:00,7.7,3.1,30.33,WSW,252,4.0,6.0,81,0.00,,OVC,0.00,0.00,VWS V15.00,2013-12-12 21:50:00,
2013-12-12 15:52:00,7.6,3.0,30.33,WSW,249,6.0,9.0,81,0.00,,OVC,0.00,9.00,VWS V14.01,2013-12-12 21:52:00,
2013-12-12 15:55:00,7.7,3.1,30.32,WSW,252,3.0,6.0,81,0.00,,OVC,0.00,0.00,VWS V15.00,2013-12-12 21:55:00,
2013-12-12 15:57:00,7.6,3.0,30.33,West,276,7.0,8.0,81,0.00,,OVC,0.00,7.00,VWS V14.01,2013-12-12 21:57:00,
2013-12-12 16:00:00,7.7,3.1,30.32,West,261,5.0,5.0,81,0.00,,OVC,0.00,0.00,VWS V15.00,2013-12-12 22:00:00,
2013-12-12 16:02:00,7.6,3.0,30.33,West,270,6.0,7.0,81,0.00,,OVC,0.00,7.00,VWS V14.01,2013-12-12 22:02:00,
2013-12-12 16:05:00,7.7,3.4,30.32,WSW,257,5.0,6.0,82,0.00,,OVC,0.00,0.00,VWS V15.00,2013-12-12 22:05:00,
2013-12-12 16:07:00,7.6,3.0,30.33,WSW,247,5.0,7.0,81,0.00,,OVC,0.00,0.00,VWS V14.01,2013-12-12 22:07:00,
2013-12-12 16:10:00,7.7,3.4,30.32,WSW,246,3.0,6.0,82,0.00,,OVC,0.00,0.00,VWS V15.00,2013-12-12 22:10:00,
2013-12-12 16:12:00,7.6,3.0,30.33,WSW,248,6.0,6.0,81,0.00,,OVC,0.00,0.00,VWS V14.01,2013-12-12 22:12:00,
2013-12-12 16:15:00,7.7,3.4,30.32,WSW,247,2.0,5.0,82,0.00,,OVC,0.00,0.00,VWS V15.00,2013-12-12 22:15:00,
2013-12-12 16:17:00,7.6,3.0,30.33,WSW,251,5.0,7.0,81,0.00,,OVC,0.00,0.00,VWS V14.01,2013-12-12 22:17:00,
2013-12-12 16:20:00,7.7,3.4,30.32,WSW,247,5.0,5.0,82,0.00,,OVC,0.00,0.00,VWS V15.00,2013-12-12 22:20:00,
2013-12-12 16:22:00,7.6,3.0,30.33,West,260,5.0,6.0,81,0.00,,OVC,0.00,0.00,VWS V14.01,2013-12-12 22:22:00,
2013-12-12 16:25:00,7.8,3.5,30.31,SW,234,5.0,7.0,82,0.00,,OVC,0.00,0.00,VWS V15.00,2013-12-12 22:25:00,
2013-12-12 16:27:00,7.7,3.1,30.33,WSW,255,4.0,6.0,81,0.00,,OVC,0.00,0.00,VWS V14.01,2013-12-12 22:27:00,
2013-12-12 16:30:00,7.8,3.5,30.31,WSW,238,4.0,7.0,82,0.00,,OVC,0.00,0.00,VWS V15.00,2013-12-12 22:30:00,
2013-12-12 16:32:00,7.7,3.1,30.33,WSW,258,4.0,4.0,81,0.00,,OVC,0.00,0.00,VWS V14.01,2013-12-12 22:32:00,
2013-12-12 16:35:00,7.7,3.4,30.31,WSW,240,6.0,8.0,82,0.00,,OVC,0.00,0.00,VWS V15.00,2013-12-12 22:35:00,
2013-12-12 16:37:00,7.7,3.1,30.33,West,271,8.0,9.0,81,0.00,,OVC,0.00,0.00,VWS V14.01,2013-12-12 22:37:00,
2013-12-12 16:40:00,7.7,3.4,30.31,WSW,245,5.0,6.0,82,0.00,,OVC,0.00,0.00,VWS V15.00,2013-12-12 22:40:00,
2013-12-12 16:42:00,7.7,3.1,30.33,West,263,3.0,6.0,81,0.00,,OVC,0.00,0.00,VWS V14.01,2013-12-12 22:42:00,
2013-12-12 16:45:00,7.7,3.4,30.31,WSW,244,5.0,7.0,82,0.00,,OVC,0.00,0.00,VWS V15.00,2013-12-12 22:45:00,
2013-12-12 16:47:00,7.6,3.0,30.33,WSW,250,4.0,6.0,81,0.00,,OVC,0.00,0.00,VWS V14.01,2013-12-12 22:47:00,
2013-12-12 16:50:00,7.7,3.4,30.31,WSW,242,5.0,6.0,82,0.00,,OVC,0.00,0.00,VWS V15.00,2013-12-12 22:50:00,
2013-12-12 16:52:00,7.6,3.0,30.33,WSW,250,5.0,5.0,81,0.00,,OVC,0.00,0.00,VWS V14.01,2013-12-12 22:52:00,
2013-12-12 16:55:00,7.7,3.4,30.31,WSW,246,5.0,7.0,82,0.00,,OVC,0.00,0.00,VWS V15.00,2013-12-12 22:55:00,
2013-12-12 16:57:00,7.7,3.1,30.32,WSW,253,3.0,3.0,81,0.00,,OVC,0.00,0.00,VWS V14.01,2013-12-12 22:57:00,
2013-12-12 17:00:00,7.7,3.4,30.31,WSW,251,3.0,5.0,82,0.00,,OVC,0.00,0.00,VWS V15.00,2013-12-12 23:00:00,
2013-12-12 17:02:00,7.7,3.1,30.32,West,261,5.0,5.0,81,0.00,,OVC,0.00,0.00,VWS V14.01,2013-12-12 23:02:00,
2013-12-12 17:05:00,7.7,3.6,30.32,WSW,242,6.0,7.0,83,0.00,,OVC,0.00,0.00,VWS V15.00,2013-12-12 23:05:00,
2013-12-12 17:07:00,7.7,3.4,30.32,West,259,5.0,6.0,82,0.00,,OVC,0.00,0.00,VWS V14.01,2013-12-12 23:07:00,
2013-12-12 17:10:00,7.7,3.4,30.31,WSW,246,5.0,7.0,82,0.00,,OVC,0.00,0.00,VWS V15.00,2013-12-12 23:10:00,
2013-12-12 17:12:00,7.7,3.4,30.32,WSW,247,3.0,4.0,82,0.00,,OVC,0.00,0.00,VWS V14.01,2013-12-12 23:12:00,
2013-12-12 17:15:00,7.7,3.4,30.31,WSW,257,5.0,6.0,82,0.00,,OVC,0.00,0.00,VWS V15.00,2013-12-12 23:15:00,
2013-12-12 17:17:00,7.7,3.4,30.32,WSW,248,3.0,4.0,82,0.00,,OVC,0.00,0.00,VWS V14.01,2013-12-12 23:17:00,
2013-12-12 17:20:00,7.7,3.4,30.31,WSW,258,4.0,6.0,82,0.00,,OVC,0.00,0.00,VWS V15.00,2013-12-12 23:20:00,
2013-12-12 17:22:00,7.7,3.4,30.31,WSW,252,5.0,6.0,82,0.00,,OVC,0.00,0.00,VWS V14.01,2013-12-12 23:22:00,
2013-12-12 17:25:00,7.7,3.4,30.31,WSW,250,5.0,7.0,82,0.00,,OVC,0.00,0.00,VWS V15.00,2013-12-12 23:25:00,
2013-12-12 17:27:00,7.8,3.5,30.31,SW,236,3.0,6.0,82,0.00,,OVC,0.00,0.00,VWS V14.01,2013-12-12 23:27:00,
2013-12-12 17:30:00,7.7,3.4,30.31,WSW,252,3.0,6.0,82,0.00,,OVC,0.00,0.00,VWS V15.00,2013-12-12 23:30:00,
2013-12-12 17:32:00,7.8,3.5,30.31,SW,234,5.0,6.0,82,0.00,,OVC,0.00,0.00,VWS V14.01,2013-12-12 23:32:00,
2013-12-12 17:35:00,7.7,3.4,30.31,West,265,4.0,7.0,82,0.00,,OVC,0.00,0.00,VWS V15.00,2013-12-12 23:35:00,
2013-12-12 17:38:00,7.7,3.4,30.31,SW,236,5.0,6.0,82,0.00,,OVC,0.00,0.00,VWS V14.01,2013-12-12 23:38:00,
2013-12-12 17:40:00,7.6,3.3,30.31,West,266,5.0,6.0,82,0.00,,OVC,0.00,0.00,VWS V15.00,2013-12-12 23:40:00,
2013-12-12 17:43:00,7.7,3.4,30.31,WSW,242,5.0,6.0,82,0.00,,OVC,0.00,0.00,VWS V14.01,2013-12-12 23:43:00,
2013-12-12 17:45:00,7.7,3.4,30.31,West,268,3.0,7.0,82,0.00,,OVC,0.00,0.00,VWS V15.00,2013-12-12 23:45:00,
2013-12-12 17:48:00,7.7,3.6,30.31,WSW,244,4.0,6.0,83,0.00,,OVC,0.00,0.00,VWS V14.01,2013-12-12 23:48:00,
2013-12-12 17:50:00,7.7,3.4,30.31,West,262,4.0,6.0,82,0.00,,OVC,0.00,0.00,VWS V15.00,2013-12-12 23:50:00,
2013-12-12 17:53:00,7.7,3.6,30.31,WSW,238,5.0,7.0,83,0.00,,OVC,0.00,0.00,VWS V14.01,2013-12-12 23:53:00,
2013-12-12 17:55:00,7.7,3.4,30.31,West,259,4.0,6.0,82,0.00,,OVC,0.00,0.00,VWS V15.00,2013-12-12 23:55:00,
2013-12-12 17:58:00,7.7,3.4,30.31,WSW,254,4.0,5.0,82,0.00,,OVC,0.00,0.00,VWS V14.01,2013-12-12 23:58:00,
2013-12-12 18:00:00,7.7,3.4,30.30,WSW,258,5.0,5.0,82,0.00,,OVC,0.00,0.00,VWS V15.00,2013-12-13 00:00:00,
2013-12-12 18:03:00,7.7,3.6,30.31,WSW,252,4.0,5.0,83,0.00,,OVC,0.00,0.00,VWS V14.01,2013-12-13 00:03:00,
2013-12-12 18:05:00,7.7,3.4,30.29,WSW,257,4.0,6.0,82,0.00,,OVC,0.00,0.00,VWS V15.00,2013-12-13 00:05:00,
2013-12-12 18:08:00,7.7,3.4,30.31,WSW,246,5.0,6.0,82,0.00,,OVC,0.00,0.00,VWS V14.01,2013-12-13 00:08:00,
2013-12-12 18:10:00,7.7,3.4,30.29,West,260,2.0,5.0,82,0.00,,OVC,0.00,0.00,VWS V15.00,2013-12-13 00:10:00,
2013-12-12 18:13:00,7.7,3.6,30.31,WSW,249,4.0,6.0,83,0.00,,OVC,0.00,0.00,VWS V14.01,2013-12-13 00:13:00,
2013-12-12 18:15:00,7.7,3.4,30.29,West,263,3.0,4.0,82,0.00,,OVC,0.00,0.00,VWS V15.00,2013-12-13 00:15:00,
2013-12-12 18:18:00,7.7,3.4,30.31,WSW,254,3.0,5.0,82,0.00,,OVC,0.00,0.00,VWS V14.01,2013-12-13 00:18:00,
2013-12-12 18:20:00,7.7,3.4,30.29,West,268,3.0,5.0,82,0.00,,OVC,0.00,0.00,VWS V15.00,2013-12-13 00:20:00,
2013-12-12 18:23:00,7.7,3.4,30.31,WSW,258,4.0,5.0,82,0.00,,OVC,0.00,0.00,VWS V14.01,2013-12-13 00:23:00,
2013-12-12 18:25:00,7.7,3.4,30.29,West,266,3.0,4.0,82,0.00,,OVC,0.00,0.00,VWS V15.00,2013-12-13 00:25:00,
2013-12-12 18:28:00,7.7,3.4,30.31,WSW,251,6.0,6.0,82,0.00,,OVC,0.00,0.00,VWS V14.01,2013-12-13 00:28:00,
2013-12-12 18:30:00,7.7,3.6,30.30,West,265,3.0,4.0,83,0.00,,OVC,0.00,0.00,VWS V15.00,2013-12-13 00:30:00,
2013-12-12 18:33:00,7.7,3.4,30.31,WSW,252,2.0,4.0,82,0.00,,OVC,0.00,0.00,VWS V14.01,2013-12-13 00:33:00,
2013-12-12 18:35:00,7.7,3.4,30.30,WSW,251,4.0,5.0,82,0.00,,OVC,0.00,0.00,VWS V15.00,2013-12-13 00:35:00,
2013-12-12 18:38:00,7.7,3.4,30.31,West,263,6.0,6.0,82,0.00,,OVC,0.00,0.00,VWS V14.01,2013-12-13 00:38:00,
2013-12-12 18:40:00,7.7,3.4,30.30,WSW,252,3.0,5.0,82,0.00,,OVC,0.00,0.00,VWS V15.00,2013-12-13 00:40:00,
2013-12-12 18:43:00,7.7,3.4,30.31,West,270,3.0,7.0,82,0.00,,OVC,0.00,0.00,VWS V14.01,2013-12-13 00:43:00,
2013-12-12 18:45:00,7.7,3.6,30.30,WSW,257,5.0,5.0,83,0.00,,OVC,0.00,0.00,VWS V15.00,2013-12-13 00:45:00,
2013-12-12 18:48:00,7.6,3.3,30.31,West,268,3.0,6.0,82,0.00,,OVC,0.00,0.00,VWS V14.01,2013-12-13 00:48:00,
2013-12-12 18:50:00,7.7,3.6,30.30,West,259,2.0,5.0,83,0.00,,OVC,0.00,0.00,VWS V15.00,2013-12-13 00:50:00,
2013-12-12 18:53:00,7.7,3.4,30.31,West,261,6.0,6.0,82,0.00,,OVC,0.00,0.00,VWS V14.01,2013-12-13 00:53:00,
2013-12-12 18:55:00,7.7,3.6,30.30,West,259,3.0,4.0,83,0.00,,OVC,0.00,0.00,VWS V15.00,2013-12-13 00:55:00,
2013-12-12 18:58:00,7.7,3.4,30.30,West,259,3.0,5.0,82,0.00,,OVC,0.00,0.00,VWS V14.01,2013-12-13 00:58:00,
2013-12-12 19:00:00,7.7,3.6,30.30,WSW,257,1.0,4.0,83,0.00,,OVC,0.00,0.00,VWS V15.00,2013-12-13 01:00:00,
2013-12-12 19:03:00,7.7,3.4,30.30,West,269,4.0,6.0,82,0.00,,OVC,0.00,0.00,VWS V14.01,2013-12-13 01:03:00,
2013-12-12 19:05:00,7.7,3.6,30.30,WSW,258,3.0,4.0,83,0.00,,OVC,0.00,0.00,VWS V15.00,2013-12-13 01:05:00,
2013-12-12 19:08:00,7.7,3.4,30.29,West,259,4.0,5.0,82,0.00,,OVC,0.00,0.00,VWS V14.01,2013-12-13 01:08:00,
2013-12-12 19:10:00,7.7,3.6,30.30,West,259,3.0,4.0,83,0.00,,OVC,0.00,0.00,VWS V15.00,2013-12-13 01:10:00,
2013-12-12 19:13:00,7.7,3.4,30.29,West,261,2.0,4.0,82,0.00,,OVC,0.00,0.00,VWS V14.01,2013-12-13 01:13:00,
2013-12-12 19:15:00,7.7,3.6,30.29,West,262,1.0,4.0,83,0.00,,OVC,0.00,0.00,VWS V15.00,2013-12-13 01:15:00,
2013-12-12 19:18:00,7.7,3.4,30.29,West,265,5.0,5.0,82,0.00,,OVC,0.00,0.00,VWS V14.01,2013-12-13 01:18:00,
2013-12-12 19:20:00,7.7,3.6,30.30,West,263,0.0,3.0,83,0.00,,OVC,0.00,0.00,VWS V15.00,2013-12-13 01:20:00,
2013-12-12 19:23:00,7.7,3.4,30.29,West,268,2.0,4.0,82,0.00,,OVC,0.00,0.00,VWS V14.01,2013-12-13 01:23:00,
2013-12-12 19:25:00,7.7,3.6,30.30,West,263,4.0,4.0,83,0.00,,OVC,0.00,0.00,VWS V15.00,2013-12-13 01:25:00,
2013-12-12 19:28:00,7.7,3.6,30.29,West,265,4.0,4.0,83,0.00,,OVC,0.00,0.00,VWS V14.01,2013-12-13 01:28:00,
2013-12-12 19:30:00,7.7,3.6,30.30,West,263,2.0,4.0,83,0.00,,OVC,0.00,0.00,VWS V15.00,2013-12-13 01:30:00,
2013-12-12 19:33:00,7.7,3.6,30.30,West,263,4.0,4.0,83,0.00,,OVC,0.00,0.00,VWS V14.01,2013-12-13 01:33:00,
2013-12-12 19:35:00,7.7,3.6,30.30,West,263,3.0,4.0,83,0.00,,OVC,0.00,0.00,VWS V15.00,2013-12-13 01:35:00,
2013-12-12 19:39:00,7.7,3.4,30.30,WSW,252,3.0,5.0,82,0.00,,OVC,0.00,0.00,VWS V14.01,2013-12-13 01:39:00,
2013-12-12 19:40:00,7.8,4.0,30.29,West,263,3.0,4.0,84,0.00,,OVC,0.00,0.00,VWS V15.00,2013-12-13 01:40:00,
2013-12-12 19:44:00,7.7,3.4,30.30,WSW,252,2.0,4.0,82,0.00,,OVC,0.00,0.00,VWS V14.01,2013-12-13 01:44:00,
2013-12-12 19:45:00,7.8,3.7,30.29,West,262,2.0,4.0,83,0.00,,OVC,0.00,0.00,VWS V15.00,2013-12-13 01:45:00,
2013-12-12 19:49:00,7.7,3.6,30.30,WSW,257,3.0,5.0,83,0.00,,OVC,0.00,0.00,VWS V14.01,2013-12-13 01:49:00,
2013-12-12 19:50:00,7.8,3.7,30.29,West,262,0.0,3.0,83,0.00,,OVC,0.00,0.00,VWS V15.00,2013-12-13 01:50:00,
2013-12-12 19:54:00,7.7,3.6,30.30,West,259,3.0,4.0,83,0.00,,OVC,0.00,0.00,VWS V14.01,2013-12-13 01:54:00,
2013-12-12 19:55:00,7.8,3.7,30.29,West,262,3.0,3.0,83,0.00,,OVC,0.00,0.00,VWS V15.00,2013-12-13 01:55:00,
2013-12-12 19:59:00,7.7,3.6,30.30,West,260,3.0,3.0,83,0.00,,OVC,0.00,0.00,VWS V14.01,2013-12-13 01:59:00,
2013-12-12 20:00:00,7.8,4.0,30.28,West,263,1.0,3.0,84,0.00,,OVC,0.00,0.00,VWS V15.00,2013-12-13 02:00:00,
2013-12-12 20:04:00,7.7,3.6,30.30,WSW,257,3.0,3.0,83,0.00,,OVC,0.00,0.00,VWS V14.01,2013-12-13 02:04:00,
2013-12-12 20:05:00,7.9,4.1,30.28,West,263,2.0,4.0,84,0.00,,OVC,0.00,0.00,VWS V15.00,2013-12-13 02:05:00,
2013-12-12 20:09:00,7.7,3.6,30.30,West,259,3.0,4.0,83,0.00,,OVC,0.00,0.00,VWS V14.01,2013-12-13 02:09:00,
2013-12-12 20:10:00,7.9,3.8,30.28,West,264,2.0,4.0,83,0.00,,OVC,0.00,0.00,VWS V15.00,2013-12-13 02:10:00,
2013-12-12 20:14:00,7.7,3.6,30.30,West,261,3.0,4.0,83,0.00,,OVC,0.00,0.00,VWS V14.01,2013-12-13 02:14:00,
2013-12-12 20:15:00,7.9,3.8,30.28,West,265,2.0,4.0,83,0.00,,OVC,0.00,0.00,VWS V15.00,2013-12-13 02:15:00,
2013-12-12 20:19:00,7.7,3.6,30.30,West,263,0.0,3.0,83,0.00,,OVC,0.00,0.00,VWS V14.01,2013-12-13 02:19:00,
2013-12-12 20:20:00,7.9,3.8,30.28,West,265,4.0,4.0,83,0.00,,OVC,0.00,0.00,VWS V15.00,2013-12-13 02:20:00,
2013-12-12 20:24:00,7.7,3.6,30.30,West,262,2.0,3.0,83,0.00,,OVC,0.00,0.00,VWS V14.01,2013-12-13 02:24:00,
2013-12-12 20:25:00,7.9,4.1,30.28,West,268,2.0,5.0,84,0.00,,OVC,0.00,0.00,VWS V15.00,2013-12-13 02:25:00,
2013-12-12 20:29:00,7.7,3.6,30.30,West,263,2.0,4.0,83,0.00,,OVC,0.00,0.00,VWS V14.01,2013-12-13 02:29:00,
2013-12-12 20:30:00,8.0,4.2,30.28,West,268,2.0,4.0,84,0.00,,OVC,0.00,0.00,VWS V15.00,2013-12-13 02:30:00,
2013-12-12 20:34:00,7.7,3.6,30.30,West,263,1.0,4.0,83,0.00,,OVC,0.00,0.00,VWS V14.01,2013-12-13 02:34:00,
2013-12-12 20:35:00,8.0,4.2,30.28,West,275,4.0,6.0,84,0.00,,OVC,0.00,0.00,VWS V15.00,2013-12-13 02:35:00,
2013-12-12 20:39:00,7.8,3.7,30.29,West,263,2.0,3.0,83,0.00,,OVC,0.00,0.00,VWS V14.01,2013-12-13 02:39:00,
2013-12-12 20:40:00,8.1,4.3,30.28,West,275,4.0,7.0,84,0.00,,OVC,0.00,0.00,VWS V15.00,2013-12-13 02:40:00,
2013-12-12 20:44:00,7.8,3.7,30.29,West,262,3.0,3.0,83,0.00,,OVC,0.00,0.00,VWS V14.01,2013-12-13 02:44:00,
2013-12-12 20:45:00,8.1,4.3,30.28,West,274,4.0,5.0,84,0.00,,OVC,0.00,0.00,VWS V15.00,2013-12-13 02:45:00,
2013-12-12 20:49:00,7.8,3.7,30.29,West,262,3.0,3.0,83,0.00,,OVC,0.00,0.00,VWS V14.01,2013-12-13 02:49:00,
2013-12-12 20:50:00,8.1,4.3,30.27,West,271,3.0,6.0,84,0.00,,OVC,0.00,0.00,VWS V15.00,2013-12-13 02:50:00,
2013-12-12 20:54:00,7.8,3.7,30.29,West,262,2.0,2.0,83,0.00,,OVC,0.00,0.00,VWS V14.01,2013-12-13 02:54:00,
2013-12-12 20:55:00,8.2,4.4,30.27,West,274,1.0,5.0,84,0.00,,OVC,0.00,0.00,VWS V15.00,2013-12-13 02:55:00,
2013-12-12 20:59:00,7.8,3.7,30.29,West,263,2.0,3.0,83,0.00,,OVC,0.00,0.00,VWS V14.01,2013-12-13 02:59:00,
2013-12-12 21:00:00,8.2,4.1,30.27,West,273,2.0,4.0,83,0.00,,OVC,0.00,0.00,VWS V15.00,2013-12-13 03:00:00,
2013-12-12 21:04:00,7.9,4.1,30.28,West,263,3.0,4.0,84,0.00,,OVC,0.00,0.00,VWS V14.01,2013-12-13 03:04:00,
2013-12-12 21:05:00,8.2,4.1,30.27,West,273,2.0,4.0,83,0.00,,OVC,0.00,0.00,VWS V15.00,2013-12-13 03:05:00,
2013-12-12 21:09:00,7.9,3.8,30.28,West,264,3.0,4.0,83,0.00,,OVC,0.00,0.00,VWS V14.01,2013-12-13 03:09:00,
2013-12-12 21:10:00,8.2,4.1,30.27,West,273,2.0,3.0,83,0.00,,OVC,0.00,0.00,VWS V15.00,2013-12-13 03:10:00,
2013-12-12 21:14:00,7.9,3.8,30.27,West,264,1.0,3.0,83,0.00,,OVC,0.00,0.00,VWS V14.01,2013-12-13 03:14:00,
2013-12-12 21:15:00,8.2,4.1,30.28,West,275,2.0,3.0,83,0.00,,OVC,0.00,0.00,VWS V15.00,2013-12-13 03:15:00,
2013-12-12 21:19:00,7.9,3.8,30.28,West,265,3.0,4.0,83,0.00,,OVC,0.00,0.00,VWS V14.01,2013-12-13 03:19:00,
2013-12-12 21:20:00,8.2,4.1,30.28,West,275,0.0,4.0,83,0.00,,OVC,0.00,0.00,VWS V15.00,2013-12-13 03:20:00,
2013-12-12 21:24:00,8.0,4.2,30.28,West,267,4.0,5.0,84,0.00,,OVC,0.00,0.00,VWS V14.01,2013-12-13 03:24:00,
2013-12-12 21:25:00,8.2,4.1,30.28,West,274,4.0,6.0,83,0.00,,OVC,0.00,0.00,VWS V15.00,2013-12-13 03:25:00,
2013-12-12 21:29:00,8.0,4.2,30.28,West,269,3.0,4.0,84,0.00,,OVC,0.00,0.00,VWS V14.01,2013-12-13 03:29:00,
2013-12-12 21:30:00,8.2,4.1,30.29,West,279,2.0,7.0,83,0.00,,OVC,0.00,0.00,VWS V15.00,2013-12-13 03:30:00,
2013-12-12 21:35:00,8.0,4.2,30.28,West,276,3.0,6.0,84,0.00,,OVC,0.00,0.00,VWS V14.01,2013-12-13 03:35:00,
2013-12-12 21:40:00,8.1,4.3,30.28,West,273,5.0,7.0,84,0.00,,OVC,0.00,0.00,VWS V14.01,2013-12-13 03:40:00,
2013-12-12 21:45:00,8.1,4.3,30.28,West,275,1.0,5.0,84,0.00,,OVC,0.00,0.00,VWS V14.01,2013-12-13 03:45:00,
2013-12-12 21:50:00,8.1,4.3,30.27,West,271,4.0,6.0,84,0.00,,OVC,0.00,0.00,VWS V14.01,2013-12-13 03:50:00,
2013-12-12 21:55:00,8.2,4.4,30.27,West,274,3.0,5.0,84,0.00,,OVC,0.00,0.00,VWS V14.01,2013-12-13 03:55:00,
2013-12-12 22:00:00,8.2,4.1,30.27,West,274,2.0,3.0,83,0.00,,OVC,0.00,0.00,VWS V14.01,2013-12-13 04:00:00,
2013-12-12 22:05:00,8.2,4.1,30.27,West,273,2.0,4.0,83,0.00,,OVC,0.00,0.00,VWS V14.01,2013-12-13 04:05:00,
2013-12-12 22:10:00,8.2,4.1,30.27,West,273,2.0,3.0,83,0.00,,OVC,0.00,0.00,VWS V14.01,2013-12-13 04:10:00,
2013-12-12 22:15:00,8.2,4.1,30.28,West,273,2.0,3.0,83,0.00,,OVC,0.00,0.00,VWS V14.01,2013-12-13 04:15:00,
2013-12-12 22:20:00,8.2,4.1,30.28,West,275,4.0,4.0,83,0.00,,OVC,0.00,0.00,VWS V14.01,2013-12-13 04:20:00,
2013-12-12 22:25:00,8.2,4.1,30.28,West,269,4.0,5.0,83,0.00,,OVC,0.00,0.00,VWS V14.01,2013-12-13 04:25:00,
2013-12-12 22:30:00,8.3,4.2,30.29,West,275,3.0,4.0,83,0.00,,OVC,0.00,0.00,VWS V14.01,2013-12-13 04:30:00,
2013-12-12 22:35:00,8.3,4.2,30.30,West,279,2.0,3.0,83,0.00,,OVC,0.00,0.00,VWS V15.00,2013-12-13 04:35:00,
2013-12-12 22:36:00,8.3,4.2,30.29,West,273,5.0,7.0,83,0.00,,OVC,0.00,0.00,VWS V14.01,2013-12-13 04:36:00,
2013-12-12 22:40:00,8.2,4.1,30.30,West,279,2.0,2.0,83,0.00,,OVC,0.00,0.00,VWS V15.00,2013-12-13 04:40:00,
2013-12-12 22:41:00,8.3,4.2,30.29,West,267,5.0,5.0,83,0.00,,OVC,0.00,0.00,VWS V14.01,2013-12-13 04:41:00,
2013-12-12 22:45:00,8.2,4.1,30.30,West,279,1.0,5.0,83,0.00,,OVC,0.00,0.00,VWS V15.00,2013-12-13 04:45:00,
2013-12-12 22:46:00,8.3,4.2,30.29,WNW,288,4.0,6.0,83,0.00,,OVC,0.00,0.00,VWS V14.01,2013-12-13 04:46:00,
2013-12-12 22:50:00,8.2,4.1,30.29,West,279,0.0,3.0,83,0.00,,OVC,0.00,0.00,VWS V15.00,2013-12-13 04:50:00,
2013-12-12 22:51:00,8.3,4.2,30.29,WNW,285,2.0,4.0,83,0.00,,OVC,0.00,0.00,VWS V14.01,2013-12-13 04:51:00,
2013-12-12 22:55:00,8.2,4.1,30.29,NW,309,2.0,4.0,83,0.00,,OVC,0.00,0.00,VWS V15.00,2013-12-13 04:55:00,
2013-12-12 22:56:00,8.3,4.2,30.29,WNW,285,0.0,5.0,83,0.00,,OVC,0.00,0.00,VWS V14.01,2013-12-13 04:56:00,
2013-12-12 23:00:00,8.2,4.1,30.30,NW,308,0.0,3.0,83,0.00,,OVC,0.00,0.00,VWS V15.00,2013-12-13 05:00:00,
2013-12-12 23:01:00,8.3,4.2,30.29,WNW,296,1.0,4.0,83,0.00,,OVC,0.00,0.00,VWS V14.01,2013-12-13 05:01:00,
2013-12-12 23:02:00,8.3,4.2,30.29,West,273,1.0,4.0,83,0.00,,OVC,0.00,0.00,VWS V14.01,2013-12-13 05:02:00,
2013-12-12 23:03:00,8.3,4.2,30.29,West,278,1.0,4.0,83,0.00,,OVC,0.00,0.00,VWS V14.01,2013-12-13 05:03:00,
2013-12-12 23:05:00,8.1,4.3,30.30,NW,308,0.0,0.0,84,0.00,,OVC,0.00,0.00,VWS V15.00,2013-12-13 05:05:00,
2013-12-12 23:08:00,8.3,4.2,30.30,West,278,1.0,3.0,83,0.00,,OVC,0.00,0.00,VWS V14.01,2013-12-13 05:08:00,
2013-12-12 23:10:00,8.3,4.2,30.30,West,277,3.0,4.0,83,0.00,,OVC,0.00,0.00,VWS V14.01,2013-12-13 05:10:00,
2013-12-12 23:15:00,8.3,4.2,30.29,WNW,285,3.0,5.0,83,0.00,,OVC,0.00,0.00,VWS V14.01,2013-12-13 05:15:00,
2013-12-12 23:20:00,8.3,4.2,30.29,WNW,285,2.0,4.0,83,0.00,,OVC,0.00,0.00,VWS V14.01,2013-12-13 05:20:00,
2013-12-12 23:25:00,8.3,4.2,30.30,WNW,285,1.0,3.0,83,0.00,,OVC,0.00,0.00,VWS V14.01,2013-12-13 05:25:00,
2013-12-12 23:30:00,8.3,4.2,30.29,West,277,2.0,4.0,83,0.00,,OVC,0.00,0.00,VWS V14.01,2013-12-13 05:30:00,
2013-12-12 23:35:00,8.3,4.2,30.30,West,277,0.0,3.0,83,0.00,,OVC,0.00,0.00,VWS V14.01,2013-12-13 05:35:00,
2013-12-12 23:40:00,8.2,4.1,30.30,West,279,2.0,2.0,83,0.00,,OVC,0.00,0.00,VWS V14.01,2013-12-13 05:40:00,
2013-12-12 23:45:00,8.2,4.1,30.30,West,280,1.0,5.0,83,0.00,,OVC,0.00,0.00,VWS V14.01,2013-12-13 05:45:00,
2013-12-12 23:50:00,8.2,4.1,30.29,West,280,1.0,3.0,83,0.00,,OVC,0.00,0.00,VWS V14.01,2013-12-13 05:50:00,
2013-12-12 23:55:00,8.2,4.1,30.30,West,280,1.0,1.0,83,0.00,,OVC,0.00,0.00,VWS V14.01,2013-12-13 05:55:00,